Time;durP1;ratioP1;P1;durP2;ratioP2;P2;SDS_P1;SDS_P2;PMS_P1;PMS_P2;Temp;Humidity;BMP_temperature;BMP_pressure;BME280_temperature;BME280_humidity;BME280_pressure;Samples;Min_cycle;Max_cycle;Signal;HPM_P1;HPM_P2
2022/06/03 00:01:00;;;;;;;5.70;4.07;;;12.60;64.40;;;;;;4992130;28;20046;-77
2022/06/03 00:03:53;;;;;;;5.35;3.80;;;12.50;66.30;;;;;;4989166;28;20114;-77
2022/06/03 00:06:49;;;;;;;6.53;4.38;;;12.30;72.10;;;;;;4990453;28;20038;-76
2022/06/03 00:09:35;;;;;;;6.72;4.07;;;12.20;72.50;;;;;;4955489;28;20089;-77
2022/06/03 00:12:07;;;;;;;;;;;12.10;72.40;;;;;;4990042;28;20030;-77
2022/06/03 00:15:10;;;;;;;4.45;3.78;;;12.00;70.70;;;;;;4974622;28;19920;-77
2022/06/03 00:17:44;;;;;;;4.80;4.35;;;12.00;72.80;;;;;;5005771;28;20518;-77
2022/06/03 00:20:24;;;;;;;6.47;4.68;;;12.10;71.50;;;;;;4978118;28;20034;-78
2022/06/03 00:23:26;;;;;;;4.85;4.18;;;11.90;73.30;;;;;;4970604;28;20038;-77
2022/06/03 00:26:10;;;;;;;4.90;4.50;;;12.00;71.20;;;;;;4990751;28;20050;-77
2022/06/03 00:28:39;;;;;;;5.72;4.43;;;12.00;70.70;;;;;;4987679;28;20554;-78
2022/06/03 00:31:26;;;;;;;7.88;4.70;;;11.90;72.40;;;;;;4971750;28;20482;-77
2022/06/03 00:34:09;;;;;;;4.40;4.00;;;11.80;72.00;;;;;;4989578;28;20370;-78
2022/06/03 00:36:53;;;;;;;5.45;4.00;;;11.80;70.60;;;;;;4978405;28;20041;-77
2022/06/03 00:39:56;;;;;;;6.57;4.25;;;11.70;72.70;;;;;;4991081;28;20022;-78
2022/06/03 00:42:52;;;;;;;4.97;4.47;;;11.60;75.50;;;;;;5005458;28;20041;-78
2022/06/03 00:45:37;;;;;;;6.63;4.78;;;11.50;77.20;;;;;;4991153;28;20034;-77
2022/06/03 00:48:17;;;;;;;5.80;4.38;;;11.50;73.80;;;;;;4977961;28;20370;-77
2022/06/03 00:50:52;;;;;;;8.60;4.00;;;11.50;72.00;;;;;;4969409;28;20037;-77
2022/06/03 00:53:46;;;;;;;9.50;5.03;;;11.50;74.10;;;;;;4998208;28;20411;-78
2022/06/03 00:56:41;;;;;;;5.55;4.63;;;11.30;73.60;;;;;;4915886;28;20032;-78
2022/06/03 01:00:03;;;;;;;5.68;4.63;;;11.20;72.90;;;;;;4994090;28;20350;-79
2022/06/03 01:02:54;;;;;;;7.55;4.60;;;11.10;73.50;;;;;;4913104;29;20073;-79
2022/06/03 01:05:58;;;;;;;6.25;4.38;;;11.10;74.70;;;;;;4919487;29;20074;-79
2022/06/03 01:08:44;;;;;;;5.32;4.30;;;11.20;77.00;;;;;;4974458;28;20113;-79
2022/06/03 01:11:51;;;;;;;7.70;5.10;;;11.20;75.60;;;;;;4978789;28;20022;-79
2022/06/03 01:14:36;;;;;;;5.93;5.15;;;11.10;75.90;;;;;;4979563;28;20027;-79
2022/06/03 01:17:11;;;;;;;8.15;4.25;;;11.10;75.40;;;;;;4958389;28;20498;-79
2022/06/03 01:19:49;;;;;;;6.13;4.20;;;11.30;72.30;;;;;;4984386;28;20042;-79
2022/06/03 01:22:48;;;;;;;5.35;4.47;;;11.30;71.70;;;;;;4992113;28;20023;-79
2022/06/03 01:25:18;;;;;;;5.70;4.45;;;11.30;72.00;;;;;;4990859;28;20049;-79
2022/06/03 01:28:21;;;;;;;6.22;4.43;;;11.20;72.70;;;;;;4978531;28;20454;-79
2022/06/03 01:31:23;;;;;;;7.15;4.65;;;11.00;75.70;;;;;;4983235;28;20484;-79
2022/06/03 01:34:21;;;;;;;6.90;4.88;;;10.80;80.70;;;;;;4990014;28;20494;-79
2022/06/03 01:36:59;;;;;;;8.02;4.93;;;10.80;79.50;;;;;;4977879;28;20504;-79
2022/06/03 01:39:28;;;;;;;10.23;5.05;;;10.80;83.20;;;;;;4978024;28;20394;-79
2022/06/03 01:42:15;;;;;;;5.80;4.18;;;10.80;78.40;;;;;;4968293;28;20465;-79
2022/06/03 01:44:56;;;;;;;6.43;5.03;;;10.70;80.90;;;;;;4978664;28;20031;-79
2022/06/03 01:47:24;;;;;;;5.20;4.70;;;10.70;82.70;;;;;;4997548;28;20037;-79
2022/06/03 01:50:06;;;;;;;10.80;5.30;;;10.80;79.50;;;;;;4990058;28;20057;-78
2022/06/03 01:52:49;;;;;;;7.95;4.90;;;10.80;80.40;;;;;;4985334;28;20375;-79
2022/06/03 01:55:37;;;;;;;5.60;4.20;;;10.70;83.10;;;;;;4989442;28;20073;-79
2022/06/03 01:58:24;;;;;;;9.25;5.03;;;10.60;84.00;;;;;;4994032;28;20026;-79
2022/06/03 02:01:16;;;;;;;12.02;5.57;;;10.70;80.80;;;;;;4994988;28;20064;-79
2022/06/03 02:04:23;;;;;;;5.45;4.90;;;10.70;79.50;;;;;;4989905;28;20169;-79
2022/06/03 02:06:48;;;;;;;9.38;4.95;;;10.60;80.80;;;;;;4991797;28;20030;-79
2022/06/03 02:09:34;;;;;;;7.97;4.78;;;10.50;82.10;;;;;;4995425;28;20615;-79
2022/06/03 02:12:06;;;;;;;6.55;5.07;;;10.30;84.10;;;;;;4950272;28;20073;-79
2022/06/03 02:14:57;;;;;;;7.53;5.13;;;10.40;82.40;;;;;;4982028;28;20490;-78
2022/06/03 02:17:52;;;;;;;6.43;5.07;;;10.20;87.70;;;;;;4995039;28;20062;-79
2022/06/03 02:20:36;;;;;;;8.73;5.43;;;10.20;86.80;;;;;;4951264;28;20135;-79
2022/06/03 02:23:26;;;;;;;7.15;5.38;;;10.30;83.90;;;;;;4988209;28;20031;-79
2022/06/03 02:26:26;;;;;;;9.32;4.88;;;10.20;87.00;;;;;;4964747;28;20412;-79
2022/06/03 02:32:02;;;;;;;11.52;4.93;;;10.20;88.50;;;;;;4982410;28;20516;-78
2022/06/03 02:34:51;;;;;;;10.95;6.43;;;10.20;87.80;;;;;;4971018;28;20030;-79
2022/06/03 02:37:35;;;;;;;7.75;5.63;;;10.10;83.40;;;;;;4977910;28;20045;-78
2022/06/03 02:40:09;;;;;;;7.47;5.53;;;9.80;88.40;;;;;;4960053;28;20463;-79
2022/06/03 02:43:14;;;;;;;8.40;4.82;;;9.90;93.30;;;;;;4990091;28;20058;-79
2022/06/03 02:46:20;;;;;;;8.02;5.53;;;9.80;92.90;;;;;;4988958;28;20201;-78
2022/06/03 02:49:10;;;;;;;6.55;5.63;;;9.80;92.60;;;;;;4991994;28;20035;-78
2022/06/03 02:51:42;;;;;;;8.48;5.50;;;9.70;95.00;;;;;;4988001;28;20046;-79
2022/06/03 02:54:25;;;;;;;7.35;6.55;;;9.70;96.20;;;;;;4969727;28;20034;-78
2022/06/03 02:57:16;;;;;;;6.88;5.90;;;9.80;91.80;;;;;;4987359;28;20038;-79
2022/06/03 03:00:08;;;;;;;10.15;6.80;;;9.80;93.20;;;;;;4947115;28;20129;-78
2022/06/03 03:02:35;;;;;;;7.65;5.32;;;9.60;92.80;;;;;;4980514;28;20034;-79
2022/06/03 03:05:28;;;;;;;8.27;6.95;;;9.50;98.20;;;;;;4984827;28;20030;-78
2022/06/03 03:08:15;;;;;;;7.00;5.55;;;9.50;94.30;;;;;;4988272;28;20126;-79
2022/06/03 03:11:05;;;;;;;10.27;6.60;;;9.40;94.50;;;;;;4988532;28;20046;-78
2022/06/03 03:14:06;;;;;;;7.35;6.13;;;9.40;99.20;;;;;;4986490;28;20405;-78
2022/06/03 03:17:03;;;;;;;8.43;5.78;;;9.30;96.60;;;;;;4992272;28;20045;-78
2022/06/03 03:19:29;;;;;;;8.93;6.78;;;9.30;99.60;;;;;;4991099;28;20437;-78
2022/06/03 03:22:16;;;;;;;8.02;6.43;;;9.40;99.20;;;;;;4995723;28;20038;-78
2022/06/03 03:24:54;;;;;;;9.65;6.70;;;9.30;98.10;;;;;;4971518;28;20443;-79
2022/06/03 03:27:32;;;;;;;8.35;6.78;;;9.10;95.00;;;;;;4998184;28;20037;-78
2022/06/03 03:30:17;;;;;;;7.90;6.85;;;9.10;95.30;;;;;;4992180;28;20034;-78
2022/06/03 03:33:07;;;;;;;7.93;6.75;;;9.10;96.70;;;;;;4974241;28;20062;-78
2022/06/03 03:36:03;;;;;;;11.07;7.18;;;9.00;97.20;;;;;;4992881;28;20039;-79
2022/06/03 03:38:47;;;;;;;7.38;6.57;;;9.10;99.90;;;;;;4986752;28;20054;-78
2022/06/03 03:41:37;;;;;;;8.77;6.57;;;9.20;99.20;;;;;;4986920;28;20097;-78
2022/06/03 03:44:37;;;;;;;7.63;6.28;;;9.20;97.60;;;;;;4988053;28;20503;-78
2022/06/03 03:47:15;;;;;;;8.95;6.88;;;9.20;95.90;;;;;;4950632;28;20342;-78
2022/06/03 03:50:01;;;;;;;9.50;6.72;;;9.10;99.80;;;;;;4970657;28;20085;-78
2022/06/03 03:52:50;;;;;;;8.13;6.93;;;9.20;99.90;;;;;;4968440;28;20038;-78
2022/06/03 03:55:54;;;;;;;8.40;6.63;;;9.30;97.90;;;;;;4987390;28;20037;-78
2022/06/03 03:58:51;;;;;;;8.27;6.03;;;9.20;99.90;;;;;;4984776;28;20144;-78
2022/06/03 04:01:55;;;;;;;8.48;7.38;;;9.00;99.10;;;;;;4975065;28;20441;-78
2022/06/03 04:04:36;;;;;;;9.10;7.35;;;8.90;97.80;;;;;;4991155;28;20037;-78
2022/06/03 04:07:10;;;;;;;8.77;7.47;;;9.00;98.90;;;;;;4988623;28;20543;-78
2022/06/03 04:09:54;;;;;;;8.52;7.45;;;9.60;99.90;;;;;;4991756;28;20034;-78
2022/06/03 04:12:53;;;;;;;8.10;7.25;;;9.40;99.90;;;;;;4994719;28;20028;-78
2022/06/03 04:15:44;;;;;;;9.40;7.07;;;9.50;98.60;;;;;;4968273;28;20026;-78
2022/06/03 04:18:37;;;;;;;8.52;7.65;;;9.70;98.30;;;;;;4973662;28;20022;-78
2022/06/03 04:21:14;;;;;;;8.15;6.53;;;9.90;98.70;;;;;;4983737;28;20096;-78
2022/06/03 04:24:17;;;;;;;8.68;6.78;;;10.20;98.80;;;;;;4990503;28;20446;-78
2022/06/03 04:26:57;;;;;;;6.90;6.20;;;10.40;98.40;;;;;;4991605;28;20026;-78
2022/06/03 04:29:48;;;;;;;8.38;5.63;;;10.60;98.00;;;;;;4994384;28;20554;-78
2022/06/03 04:32:33;;;;;;;7.93;5.70;;;10.80;98.30;;;;;;4995239;28;20439;-78
2022/06/03 04:35:26;;;;;;;10.18;6.03;;;11.00;97.80;;;;;;4984043;28;20126;-78
2022/06/03 04:38:03;;;;;;;8.05;5.97;;;11.20;97.50;;;;;;4992203;28;20109;-78
2022/06/03 04:41:09;;;;;;;9.60;5.85;;;11.50;97.50;;;;;;4993930;28;20543;-78
2022/06/03 04:43:48;;;;;;;6.70;5.75;;;11.70;97.30;;;;;;4974302;28;20022;-78
2022/06/03 04:46:39;;;;;;;8.20;5.25;;;11.90;97.60;;;;;;4979931;28;20462;-78
2022/06/03 04:49:10;;;;;;;7.90;5.28;;;12.20;97.70;;;;;;4993428;28;20050;-78
2022/06/03 04:52:09;;;;;;;7.47;5.20;;;12.40;97.80;;;;;;4994543;28;20579;-79
2022/06/03 04:54:37;;;;;;;5.75;5.05;;;12.70;97.80;;;;;;4991754;28;20030;-79
2022/06/03 04:57:18;;;;;;;7.15;5.18;;;13.00;98.00;;;;;;4992102;28;20034;-79
2022/06/03 05:00:21;;;;;;;13.95;5.28;;;13.20;97.50;;;;;;4993955;28;20087;-79
2022/06/03 05:03:12;;;;;;;6.07;4.85;;;13.50;96.60;;;;;;4991348;28;20045;-79
2022/06/03 05:05:55;;;;;;;6.65;4.80;;;13.70;97.00;;;;;;4988644;28;20031;-79
2022/06/03 05:08:53;;;;;;;5.07;4.55;;;14.00;96.70;;;;;;4983550;28;20022;-79
2022/06/03 05:11:50;;;;;;;6.57;4.70;;;14.30;95.90;;;;;;4991380;28;20093;-79
2022/06/03 05:14:40;;;;;;;5.20;4.80;;;14.60;95.60;;;;;;4993467;28;20030;-79
2022/06/03 05:17:31;;;;;;;5.68;4.38;;;14.90;96.20;;;;;;4989554;28;20041;-79
2022/06/03 05:20:06;;;;;;;4.70;4.22;;;15.20;95.90;;;;;;4991489;28;20521;-79
2022/06/03 05:22:38;;;;;;;5.22;4.50;;;15.40;95.50;;;;;;4982887;28;20109;-79
2022/06/03 05:25:31;;;;;;;6.57;4.40;;;15.60;95.40;;;;;;4965029;28;20347;-80
2022/06/03 05:28:05;;;;;;;4.60;3.70;;;15.90;95.50;;;;;;4988586;28;20395;-79
2022/06/03 05:30:41;;;;;;;6.30;4.60;;;16.20;94.70;;;;;;4983505;28;20560;-79
2022/06/03 05:33:15;;;;;;;;;;;16.40;94.50;;;;;;4968091;28;20046;-79
2022/06/03 05:35:50;;;;;;;6.22;4.18;;;16.60;94.50;;;;;;4995191;28;20011;-80
2022/06/03 05:38:42;;;;;;;8.38;4.30;;;16.90;93.90;;;;;;4996181;28;20120;-79
2022/06/03 05:44:48;;;;;;;4.93;4.07;;;17.40;93.20;;;;;;4990473;28;20034;-80
2022/06/03 05:47:18;;;;;;;3.92;3.53;;;17.60;92.80;;;;;;4998317;28;20402;-79
2022/06/03 05:50:05;;;;;;;4.18;3.75;;;17.90;92.40;;;;;;4956516;28;20030;-80
2022/06/03 05:52:41;;;;;;;6.70;4.43;;;18.10;92.10;;;;;;4992786;28;20442;-79
2022/06/03 05:55:16;;;;;;;;;;;18.30;91.40;;;;;;4968309;28;20031;-79
2022/06/03 05:58:03;;;;;;;7.25;4.10;;;18.60;91.40;;;;;;4987981;28;20361;-80
2022/06/03 06:00:43;;;;;;;4.80;4.30;;;18.70;90.50;;;;;;4983076;28;20476;-79
2022/06/03 06:03:27;;;;;;;4.93;4.15;;;19.00;90.40;;;;;;4991364;28;20463;-79
2022/06/03 06:06:33;;;;;;;6.80;4.15;;;19.20;89.80;;;;;;4991148;28;20038;-80
2022/06/03 06:09:11;;;;;;;5.22;4.30;;;19.40;89.50;;;;;;4974859;28;20026;-78
2022/06/03 06:11:55;;;;;;;3.78;3.47;;;19.70;88.40;;;;;;4968299;28;20038;-78
2022/06/03 06:14:39;;;;;;;4.50;3.88;;;19.80;87.80;;;;;;4988855;28;20025;-78
2022/06/03 06:17:40;;;;;;;5.60;3.78;;;20.10;87.10;;;;;;4991310;28;20512;-78
2022/06/03 06:20:16;;;;;;;3.55;3.25;;;20.30;86.80;;;;;;4960029;28;20034;-78
2022/06/03 06:22:46;;;;;;;6.97;3.10;;;20.50;85.10;;;;;;4982562;28;20250;-78
2022/06/03 06:25:34;;;;;;;6.22;3.72;;;20.70;84.80;;;;;;4972743;28;20031;-78
2022/06/03 06:28:02;;;;;;;7.78;4.13;;;20.90;84.00;;;;;;4976734;28;20030;-78
2022/06/03 06:30:42;;;;;;;3.00;2.70;;;21.20;83.40;;;;;;4954083;28;20110;-78
2022/06/03 06:33:32;;;;;;;3.40;3.10;;;21.40;83.10;;;;;;4991810;28;20034;-79
2022/06/03 06:36:16;;;;;;;6.60;3.67;;;21.60;82.40;;;;;;4990334;28;20027;-78
2022/06/03 06:39:04;;;;;;;4.20;3.30;;;21.90;81.50;;;;;;4968515;28;20035;-78
2022/06/03 06:41:43;;;;;;;7.38;3.03;;;22.10;81.30;;;;;;4972127;28;20046;-78
2022/06/03 06:44:30;;;;;;;5.63;3.08;;;22.30;80.00;;;;;;4989415;28;20085;-79
2022/06/03 06:47:04;;;;;;;;;;;22.50;79.30;;;;;;4950929;28;20038;-78
2022/06/03 06:49:33;;;;;;;5.82;2.88;;;22.70;78.00;;;;;;4992492;28;20285;-79
2022/06/03 06:52:37;;;;;;;3.33;2.45;;;22.90;77.80;;;;;;4975460;28;20085;-79
2022/06/03 06:55:23;;;;;;;5.13;2.78;;;23.00;77.30;;;;;;4960756;28;20378;-79
2022/06/03 06:57:50;;;;;;;2.53;2.10;;;23.20;76.50;;;;;;4953329;28;20035;-81
2022/06/03 07:00:24;;;;;;;3.35;1.95;;;23.50;76.20;;;;;;4974513;28;20101;-81
2022/06/03 07:03:08;;;;;;;7.10;2.30;;;23.70;74.90;;;;;;4983521;28;20430;-78
2022/06/03 07:06:10;;;;;;;4.97;2.22;;;23.90;75.40;;;;;;4989423;28;20508;-81
2022/06/03 07:08:41;;;;;;;3.22;2.30;;;24.10;74.90;;;;;;4989268;28;20061;-81
2022/06/03 07:11:24;;;;;;;3.40;1.90;;;24.30;74.50;;;;;;4991342;28;20037;-81
2022/06/03 07:14:07;;;;;;;3.97;2.22;;;24.50;73.10;;;;;;4967595;28;20370;-81
2022/06/03 07:20:00;;;;;;;4.05;1.73;;;24.90;70.40;;;;;;4994848;28;20064;-81
2022/06/03 07:22:42;;;;;;;2.53;2.17;;;25.00;68.70;;;;;;4965172;28;20042;-80
2022/06/03 07:25:23;;;;;;;4.18;1.75;;;25.20;69.10;;;;;;4992317;28;20516;-80
2022/06/03 07:27:57;;;;;;;2.33;1.60;;;25.40;67.70;;;;;;4972264;28;20034;-80
2022/06/03 07:30:29;;;;;;;1.80;1.40;;;25.40;67.10;;;;;;4987321;28;20031;-80
2022/06/03 07:33:05;;;;;;;5.38;2.20;;;25.60;67.40;;;;;;4956430;28;20424;-80
2022/06/03 07:35:52;;;;;;;;;;;25.70;66.30;;;;;;4974346;28;20494;-80
2022/06/03 07:38:20;;;;;;;2.30;1.58;;;25.70;66.30;;;;;;4988264;28;20288;-81
2022/06/03 07:40:53;;;;;;;2.40;1.40;;;25.90;65.50;;;;;;4989974;28;20045;-81
2022/06/03 07:43:33;;;;;;;3.85;1.50;;;25.90;65.00;;;;;;4959912;28;20561;-81
2022/06/03 07:46:01;;;;;;;3.75;1.50;;;26.00;65.00;;;;;;4989351;28;20045;-80
2022/06/03 07:48:28;;;;;;;5.28;1.77;;;26.20;63.10;;;;;;4997382;28;20038;-80
2022/06/03 07:51:04;;;;;;;3.95;2.38;;;26.50;62.00;;;;;;4959284;28;20260;-80
2022/06/03 07:53:30;;;;;;;2.47;2.20;;;26.60;62.60;;;;;;4975810;28;20035;-80
2022/06/03 07:55:59;;;;;;;2.78;1.88;;;26.80;61.10;;;;;;4990757;28;20037;-80
2022/06/03 07:58:25;;;;;;;5.15;2.60;;;26.90;61.10;;;;;;4968771;28;20035;-81
2022/06/03 08:00:50;;;;;;;4.43;1.77;;;27.00;61.50;;;;;;4975083;28;20113;-81
2022/06/03 08:03:21;;;;;;;2.45;1.65;;;27.20;59.60;;;;;;4963004;28;20030;-81
2022/06/03 08:05:49;;;;;;;4.53;1.70;;;27.30;60.60;;;;;;4961993;28;20061;-81
2022/06/03 08:11:05;;;;;;;4.28;2.15;;;27.60;59.50;;;;;;4983257;28;20041;-82
2022/06/03 08:13:39;;;;;;;3.22;1.67;;;27.70;58.50;;;;;;4975463;28;20057;-82
2022/06/03 08:16:33;;;;;;;6.22;2.00;;;27.90;59.30;;;;;;4991376;28;20194;-82
2022/06/03 08:19:01;;;;;;;4.70;2.33;;;28.00;57.20;;;;;;4958117;28;20043;-82
2022/06/03 08:21:39;;;;;;;3.17;1.50;;;28.00;57.10;;;;;;4956618;28;20487;-82
2022/06/03 08:24:08;;;;;;;1.80;1.38;;;28.20;56.60;;;;;;4954925;28;20041;-83
2022/06/03 08:26:34;;;;;;;7.05;2.05;;;28.30;56.40;;;;;;4959421;28;20073;-83
2022/06/03 08:29:13;;;;;;;3.83;1.60;;;28.50;54.30;;;;;;4965451;28;20033;-83
2022/06/03 08:31:39;;;;;;;2.28;1.40;;;28.50;54.50;;;;;;4966148;28;20042;-84
2022/06/03 08:34:06;;;;;;;4.60;1.58;;;28.50;55.20;;;;;;4979259;28;20077;-84
2022/06/03 08:36:35;;;;;;;2.55;1.65;;;28.50;54.60;;;;;;4968388;28;20488;-84
2022/06/03 08:39:15;;;;;;;3.33;1.58;;;28.60;54.90;;;;;;4960799;28;20110;-84
2022/06/03 08:42:03;;;;;;;7.97;1.70;;;28.70;54.70;;;;;;4959718;28;20506;-85
2022/06/03 08:44:59;;;;;;;1.70;1.38;;;28.80;54.60;;;;;;4987815;28;20360;-86
2022/06/03 08:47:37;;;;;;;1.85;1.55;;;28.90;53.40;;;;;;4921330;28;20043;-85
2022/06/03 08:50:24;;;;;;;3.28;1.70;;;28.90;53.80;;;;;;4969874;28;20046;-85
2022/06/03 08:53:07;;;;;;;2.90;1.20;;;29.00;54.40;;;;;;4975180;28;20462;-85
2022/06/03 08:55:56;;;;;;;3.08;1.45;;;29.00;54.70;;;;;;4991166;28;20038;-85
2022/06/03 08:58:41;;;;;;;3.50;1.40;;;29.30;54.60;;;;;;4989914;28;20065;-86
2022/06/03 09:01:25;;;;;;;3.63;1.60;;;29.30;54.30;;;;;;4978238;28;20084;-85
2022/06/03 09:04:21;;;;;;;3.63;1.33;;;29.60;51.90;;;;;;4978040;28;20022;-86
2022/06/03 09:06:53;;;;;;;2.25;1.30;;;29.60;51.50;;;;;;4993026;28;20030;-86
2022/06/03 09:09:38;;;;;;;3.15;1.50;;;29.70;51.20;;;;;;4998084;28;20026;-86
2022/06/03 09:12:19;;;;;;;4.82;1.65;;;29.70;51.70;;;;;;4976786;28;20050;-86
2022/06/03 09:14:47;;;;;;;3.35;1.30;;;29.80;50.80;;;;;;4975390;28;20022;-85
2022/06/03 09:17:25;;;;;;;6.13;1.25;;;29.80;50.70;;;;;;4975668;28;20031;-85
2022/06/03 09:19:58;;;;;;;0.82;0.80;;;30.00;50.70;;;;;;4980226;28;20097;-84
2022/06/03 09:22:25;;;;;;;1.33;1.15;;;30.00;49.70;;;;;;4964771;28;20026;-84
2022/06/03 09:24:50;;;;;;;2.63;1.25;;;30.20;49.80;;;;;;4953524;28;20048;-84
2022/06/03 09:27:20;;;;;;;2.83;1.25;;;30.20;48.70;;;;;;4967766;28;20034;-84
2022/06/03 09:29:53;;;;;;;4.35;0.93;;;30.30;48.90;;;;;;4979666;28;20035;-84
2022/06/03 09:32:19;;;;;;;5.00;1.10;;;30.20;49.70;;;;;;4979737;28;20169;-83
2022/06/03 09:34:50;;;;;;;2.47;1.00;;;30.30;51.40;;;;;;4963814;28;20037;-83
2022/06/03 09:37:30;;;;;;;3.42;1.30;;;30.50;49.10;;;;;;4984175;28;20037;-82
2022/06/03 09:39:58;;;;;;;1.40;1.30;;;30.80;48.30;;;;;;4963164;28;20398;-82
2022/06/03 09:42:24;;;;;;;2.03;1.17;;;31.00;47.80;;;;;;4973801;28;20033;-81
2022/06/03 09:44:50;;;;;;;2.55;1.20;;;30.90;49.30;;;;;;4965278;28;20026;-81
2022/06/03 09:47:20;;;;;;;4.50;1.00;;;30.90;49.10;;;;;;4964545;28;20517;-80
2022/06/03 09:49:48;;;;;;;1.17;0.70;;;30.90;48.00;;;;;;4994074;28;20517;-80
2022/06/03 09:52:18;;;;;;;2.17;1.10;;;30.90;47.40;;;;;;4962608;28;20030;-80
2022/06/03 09:54:43;;;;;;;2.55;1.08;;;30.90;46.60;;;;;;4973133;28;20041;-79
2022/06/03 09:57:12;;;;;;;1.45;1.13;;;30.70;46.30;;;;;;4960031;28;20399;-80
2022/06/03 09:59:40;;;;;;;2.67;1.13;;;30.70;46.50;;;;;;4971363;28;20078;-79
2022/06/03 10:02:06;;;;;;;3.17;1.05;;;30.70;46.20;;;;;;4975508;28;20683;-79
2022/06/03 10:04:33;;;;;;;4.13;1.30;;;30.50;46.70;;;;;;4962786;28;20038;-80
2022/06/03 10:07:00;;;;;;;1.83;0.90;;;30.60;46.80;;;;;;4970743;28;20779;-79
2022/06/03 10:12:56;;;;;;;3.22;1.17;;;30.60;46.80;;;;;;4976728;28;20085;-79
2022/06/03 10:18:28;;;;;;;2.13;0.82;;;30.80;46.00;;;;;;4993104;28;20120;-80
2022/06/03 10:20:55;;;;;;;1.27;0.93;;;30.80;46.10;;;;;;4986374;28;20375;-79
2022/06/03 10:23:21;;;;;;;1.52;1.05;;;30.80;47.00;;;;;;4953615;28;20027;-79
2022/06/03 10:25:49;;;;;;;2.17;1.05;;;31.00;46.40;;;;;;4963432;28;20386;-79
2022/06/03 10:28:15;;;;;;;2.55;1.10;;;30.80;45.00;;;;;;4970850;28;20568;-79
2022/06/03 10:30:41;;;;;;;2.45;1.10;;;30.80;45.70;;;;;;4962421;28;20413;-78
2022/06/03 10:33:20;;;;;;;3.13;1.20;;;30.80;45.20;;;;;;4962445;28;20029;-78
2022/06/03 10:35:46;;;;;;;12.20;1.50;;;30.70;43.80;;;;;;4968046;28;20061;-79
2022/06/03 10:38:14;;;;;;;3.78;1.10;;;30.70;44.60;;;;;;4965187;28;20053;-78
2022/06/03 10:40:44;;;;;;;2.45;1.00;;;30.70;45.40;;;;;;4956827;28;20093;-79
2022/06/03 10:43:10;;;;;;;1.88;1.08;;;30.70;46.50;;;;;;4961129;28;20130;-78
2022/06/03 10:45:37;;;;;;;2.00;1.10;;;30.70;46.60;;;;;;4974571;28;20530;-78
2022/06/03 10:48:29;;;;;;;1.10;0.90;;;30.80;45.90;;;;;;4976240;28;20113;-78
2022/06/03 10:51:11;;;;;;;3.33;0.95;;;31.00;46.40;;;;;;4987444;28;20030;-79
2022/06/03 11:02:36;;;;;;;3.03;1.17;;;31.10;44.50;;;;;;4928417;29;20114;-79
2022/06/03 11:05:20;;;;;;;2.72;1.08;;;31.40;45.60;;;;;;4961862;28;20030;-80
2022/06/03 11:08:08;;;;;;;1.40;1.10;;;31.60;45.00;;;;;;4963442;28;20112;-79
2022/06/03 11:11:00;;;;;;;3.83;1.23;;;31.90;44.20;;;;;;4964969;28;20038;-79
2022/06/03 11:13:30;;;;;;;3.72;1.13;;;32.00;45.90;;;;;;4966116;28;20041;-80
2022/06/03 11:15:58;;;;;;;3.03;0.90;;;32.40;43.80;;;;;;4960235;28;20037;-80
2022/06/03 11:18:29;;;;;;;4.50;1.17;;;32.50;45.20;;;;;;4984185;28;20407;-78
2022/06/03 11:20:55;;;;;;;5.13;1.40;;;32.70;45.20;;;;;;4971276;28;20605;-78
2022/06/03 11:23:26;;;;;;;1.17;1.00;;;33.00;44.00;;;;;;4972708;28;20026;-78
2022/06/03 11:25:54;;;;;;;1.85;0.93;;;33.20;43.80;;;;;;4987034;28;20026;-78
2022/06/03 11:28:24;;;;;;;2.33;1.00;;;33.20;44.00;;;;;;4955050;28;20485;-78
2022/06/03 11:30:53;;;;;;;1.63;1.52;;;33.30;43.40;;;;;;4971678;28;20026;-78
2022/06/03 11:33:25;;;;;;;1.23;0.90;;;33.50;42.60;;;;;;4988089;28;20037;-78
2022/06/03 11:36:10;;;;;;;1.08;1.00;;;33.50;42.00;;;;;;4988470;28;20479;-79
2022/06/03 11:39:07;;;;;;;0.90;0.90;;;33.50;42.50;;;;;;4978865;28;20033;-78
2022/06/03 11:41:44;;;;;;;2.15;1.20;;;33.50;42.30;;;;;;4977785;28;20026;-78
2022/06/03 11:44:28;;;;;;;1.50;1.15;;;33.60;42.50;;;;;;4976551;28;20037;-79
2022/06/03 11:47:14;;;;;;;3.80;1.08;;;33.80;42.30;;;;;;4964888;28;20170;-78
2022/06/03 11:49:40;;;;;;;2.85;1.10;;;34.00;41.00;;;;;;4986956;28;20042;-76
2022/06/03 11:52:05;;;;;;;1.73;1.20;;;33.90;40.90;;;;;;4971523;28;20427;-78
2022/06/03 11:54:31;;;;;;;1.88;0.95;;;33.80;41.30;;;;;;4996104;28;20041;-78
2022/06/03 11:56:58;;;;;;;3.55;1.10;;;33.80;41.50;;;;;;4978490;28;20495;-79
2022/06/03 11:59:34;;;;;;;1.13;0.95;;;33.70;41.30;;;;;;4957558;28;20495;-79
2022/06/03 12:02:14;;;;;;;2.53;1.20;;;33.70;41.50;;;;;;4983088;28;20482;-78
2022/06/03 12:04:55;;;;;;;1.98;1.17;;;33.80;40.80;;;;;;4974113;28;20031;-78
2022/06/03 12:07:45;;;;;;;3.28;0.98;;;33.80;40.90;;;;;;4977590;28;20057;-78
2022/06/03 12:10:23;;;;;;;3.78;1.30;;;33.80;41.60;;;;;;4990657;28;20166;-78
2022/06/03 12:13:17;;;;;;;3.00;1.20;;;33.90;41.60;;;;;;4988262;28;20061;-78
2022/06/03 12:16:01;;;;;;;3.17;1.38;;;34.00;42.30;;;;;;4975619;28;20038;-79
2022/06/03 12:18:34;;;;;;;3.88;1.40;;;34.30;39.70;;;;;;4989365;28;20054;-79
2022/06/03 12:21:01;;;;;;;2.60;1.13;;;34.40;41.00;;;;;;4994750;28;20026;-78
2022/06/03 12:23:27;;;;;;;3.50;1.30;;;34.50;41.30;;;;;;4950371;28;20026;-79
2022/06/03 12:25:53;;;;;;;1.90;1.00;;;34.70;39.90;;;;;;4985650;28;20030;-79
2022/06/03 12:28:22;;;;;;;1.85;1.10;;;34.90;40.60;;;;;;4993821;28;20030;-78
2022/06/03 12:30:50;;;;;;;1.67;1.13;;;35.10;40.60;;;;;;4995800;28;20105;-78
2022/06/03 12:33:26;;;;;;;2.53;1.23;;;35.20;38.40;;;;;;4991589;28;20282;-80
2022/06/03 12:35:53;;;;;;;1.48;1.27;;;35.20;39.00;;;;;;4990578;28;20054;-78
2022/06/03 12:38:22;;;;;;;4.05;1.77;;;35.20;39.80;;;;;;4992455;28;20046;-79
2022/06/03 12:40:51;;;;;;;3.85;1.05;;;35.30;39.30;;;;;;4994907;28;20034;-79
2022/06/03 12:43:29;;;;;;;1.38;1.27;;;35.40;41.20;;;;;;4963450;28;20058;-76
2022/06/03 12:46:00;;;;;;;2.65;1.20;;;35.60;41.30;;;;;;4992367;28;20047;-76
2022/06/03 12:48:47;;;;;;;1.30;1.13;;;36.00;40.00;;;;;;4999486;28;20064;-76
2022/06/03 12:51:19;;;;;;;2.35;1.00;;;36.30;38.90;;;;;;4986533;28;20046;-78
2022/06/03 12:53:45;;;;;;;1.55;1.45;;;36.40;39.50;;;;;;4990872;28;20037;-79
2022/06/03 12:56:23;;;;;;;1.30;0.93;;;36.40;38.60;;;;;;4980863;28;20023;-79
2022/06/03 12:58:53;;;;;;;3.13;1.45;;;36.50;39.00;;;;;;4974002;28;20168;-78
2022/06/03 13:01:34;;;;;;;1.85;1.20;;;36.50;38.10;;;;;;4961370;28;20121;-79
2022/06/03 13:04:25;;;;;;;3.85;1.08;;;36.50;38.70;;;;;;4950971;28;20030;-78
2022/06/03 13:07:09;;;;;;;1.90;1.10;;;36.70;38.10;;;;;;4975194;28;20080;-79
2022/06/03 13:09:48;;;;;;;1.63;1.17;;;36.60;37.20;;;;;;4996546;28;20042;-78
2022/06/03 13:12:25;;;;;;;2.50;1.25;;;36.40;37.40;;;;;;4959562;28;20026;-78
2022/06/03 13:14:51;;;;;;;4.85;1.10;;;36.10;37.30;;;;;;4997680;28;20084;-79
2022/06/03 13:17:54;;;;;;;2.15;0.90;;;36.00;36.30;;;;;;4995720;28;20414;-78
2022/06/03 13:21:09;;;;;;;3.95;1.55;;;36.00;38.70;;;;;;4997007;28;20172;-78
2022/06/03 13:23:45;;;;;;;1.90;1.20;;;36.10;37.40;;;;;;4987784;28;20030;-78
2022/06/03 13:26:22;;;;;;;2.42;1.05;;;36.30;37.00;;;;;;4995267;28;20029;-79
2022/06/03 13:28:55;;;;;;;1.58;1.10;;;36.50;37.80;;;;;;4997096;28;20106;-78
2022/06/03 13:31:39;;;;;;;2.92;1.10;;;36.70;37.90;;;;;;4995465;28;20347;-78
2022/06/03 13:34:05;;;;;;;1.67;0.82;;;36.90;37.20;;;;;;4992442;28;20475;-78
2022/06/03 13:36:39;;;;;;;2.90;1.30;;;37.10;38.80;;;;;;4996536;28;20038;-79
2022/06/03 13:39:06;;;;;;;1.58;1.33;;;37.10;37.40;;;;;;4974497;28;20439;-78
2022/06/03 13:44:37;;;;;;;0.80;0.80;;;37.40;34.80;;;;;;4997757;28;20092;-78
2022/06/03 13:47:09;;;;;;;2.38;1.20;;;37.40;36.30;;;;;;4976252;28;20053;-78
2022/06/03 13:49:36;;;;;;;10.13;1.23;;;37.50;35.40;;;;;;4947550;28;20030;-79
2022/06/03 13:52:14;;;;;;;1.00;0.90;;;37.60;35.40;;;;;;4985214;28;20173;-79
2022/06/03 13:54:46;;;;;;;5.07;1.23;;;37.50;34.80;;;;;;4977253;28;20042;-78
2022/06/03 13:57:20;;;;;;;2.15;0.93;;;37.40;35.20;;;;;;4956657;28;20037;-75
2022/06/03 13:59:46;;;;;;;2.38;0.90;;;37.20;35.10;;;;;;4989128;28;20153;-75
2022/06/03 14:02:29;;;;;;;5.13;1.40;;;37.10;36.10;;;;;;4958271;28;20117;-78
2022/06/03 14:04:57;;;;;;;0.98;0.98;;;37.10;36.10;;;;;;4969437;28;20458;-79
2022/06/03 14:07:30;;;;;;;2.70;1.45;;;37.00;36.30;;;;;;4959254;28;20038;-79
2022/06/03 14:10:02;;;;;;;5.25;1.25;;;36.80;35.50;;;;;;4957679;28;20033;-80
2022/06/03 14:12:36;;;;;;;3.13;1.30;;;36.70;35.80;;;;;;4966040;28;20397;-78
2022/06/03 14:15:20;;;;;;;2.80;1.23;;;36.60;35.70;;;;;;4949576;28;20097;-77
2022/06/03 14:17:45;;;;;;;2.63;1.40;;;36.40;35.40;;;;;;4979183;28;20041;-76
2022/06/03 14:20:15;;;;;;;1.77;1.40;;;36.30;36.00;;;;;;4996220;28;20049;-75
2022/06/03 14:23:07;;;;;;;1.40;1.25;;;36.20;35.70;;;;;;4971209;28;20481;-76
2022/06/03 14:25:50;;;;;;;2.15;1.33;;;36.20;36.40;;;;;;4990318;28;20437;-76